createdAt,value
2019-05-21T00:00:11.264Z,11.96
2019-05-21T00:01:11.278Z,11.95
2019-05-21T00:02:11.213Z,11.91
2019-05-21T00:03:11.216Z,11.94
2019-05-21T00:04:11.198Z,11.98
2019-05-21T00:05:11.227Z,11.96
2019-05-21T00:06:11.183Z,11.96
2019-05-21T00:07:11.158Z,11.96
2019-05-21T00:08:11.148Z,11.95
2019-05-21T00:09:11.129Z,11.94
2019-05-21T00:10:11.174Z,11.94
2019-05-21T00:11:11.123Z,11.96
2019-05-21T00:12:11.132Z,12.01
2019-05-21T00:13:11.095Z,11.98
2019-05-21T00:14:11.151Z,11.98
2019-05-21T00:15:11.087Z,12.01
2019-05-21T00:16:11.090Z,11.98
2019-05-21T00:17:11.090Z,11.88
2019-05-21T00:18:11.105Z,11.96
2019-05-21T00:19:11.070Z,11.91
2019-05-21T00:20:11.020Z,11.95
2019-05-21T00:21:11.030Z,11.94
2019-05-21T00:22:10.997Z,11.98
2019-05-21T00:23:10.996Z,11.91
2019-05-21T00:24:10.967Z,11.98
2019-05-21T00:25:10.964Z,11.98
2019-05-21T00:26:11.005Z,11.91
2019-05-21T00:27:10.940Z,11.94
2019-05-21T00:28:10.929Z,11.94
2019-05-21T00:29:10.910Z,11.95
2019-05-21T00:30:10.901Z,11.94
2019-05-21T00:31:10.934Z,11.95
2019-05-21T00:32:10.916Z,11.95
2019-05-21T00:33:10.871Z,11.94
2019-05-21T00:34:10.874Z,11.96
2019-05-21T00:35:10.860Z,11.91
2019-05-21T00:36:10.836Z,11.90
2019-05-21T00:37:10.839Z,11.86
2019-05-21T00:38:10.797Z,11.98
2019-05-21T00:39:10.800Z,11.96
2019-05-21T00:40:10.803Z,11.94
2019-05-21T00:41:10.764Z,11.90
2019-05-21T00:42:10.808Z,11.75
2019-05-21T00:43:10.760Z,11.82
2019-05-21T00:44:10.769Z,11.90
2019-05-21T00:45:10.732Z,11.90
2019-05-21T00:46:10.770Z,11.90
2019-05-21T00:47:10.725Z,11.94
2019-05-21T00:48:10.705Z,11.75
2019-05-21T00:49:10.685Z,11.82
2019-05-21T00:50:10.664Z,11.86
2019-05-21T00:51:10.667Z,11.80
2019-05-21T00:52:10.660Z,11.75
2019-05-21T00:53:10.672Z,11.72
2019-05-21T00:54:10.620Z,11.79
2019-05-21T00:55:10.622Z,11.79
2019-05-21T00:56:10.653Z,11.78
2019-05-21T00:57:10.709Z,11.82
2019-05-21T00:58:10.614Z,11.83
2019-05-21T00:59:10.561Z,11.75
2019-05-21T01:00:10.918Z,11.73
2019-05-21T01:01:10.568Z,11.86
2019-05-21T01:02:10.536Z,11.70
2019-05-21T01:03:10.539Z,11.82
2019-05-21T01:04:10.547Z,11.85
2019-05-21T01:05:10.506Z,11.69
2019-05-21T01:06:10.491Z,11.80
2019-05-21T01:07:10.469Z,11.75
2019-05-21T01:08:10.469Z,11.83
2019-05-21T01:09:10.478Z,11.80
2019-05-21T01:10:10.444Z,11.85
2019-05-21T01:11:10.426Z,11.86
2019-05-21T01:12:10.429Z,11.86
2019-05-21T01:13:10.412Z,11.86
2019-05-21T01:14:10.445Z,11.83
2019-05-21T01:15:10.420Z,11.83
2019-05-21T01:16:10.370Z,11.85
2019-05-21T01:17:10.355Z,11.85
2019-05-21T01:18:10.362Z,11.90
2019-05-21T01:19:10.334Z,11.86
2019-05-21T01:20:10.348Z,11.80
2019-05-21T01:21:10.335Z,11.76
2019-05-21T01:22:10.306Z,11.86
2019-05-21T01:23:10.294Z,11.80
2019-05-21T01:24:10.271Z,11.83
2019-05-21T01:25:10.307Z,11.82
2019-05-21T01:26:10.281Z,11.83
2019-05-21T01:27:10.270Z,11.82
2019-05-21T01:28:10.255Z,11.88
2019-05-21T01:29:10.230Z,11.70
2019-05-21T01:30:10.251Z,11.80
2019-05-21T01:31:10.213Z,11.72
2019-05-21T01:32:10.205Z,11.80
2019-05-21T01:33:10.208Z,11.75
2019-05-21T01:34:11.556Z,11.82
2019-05-21T01:35:17.237Z,11.80
2019-05-21T01:36:10.152Z,11.76
2019-05-21T01:37:10.142Z,11.82
2019-05-21T01:38:10.131Z,11.76
2019-05-21T01:39:10.106Z,11.86
2019-05-21T01:40:10.158Z,11.75
2019-05-21T01:41:10.085Z,11.86
2019-05-21T01:42:10.087Z,11.85
2019-05-21T01:43:10.075Z,11.75
2019-05-21T01:44:10.084Z,11.75
2019-05-21T01:45:10.047Z,11.80
2019-05-21T01:46:10.097Z,11.69
2019-05-21T01:47:10.027Z,11.67
2019-05-21T01:48:10.019Z,11.73
2019-05-21T01:49:10.025Z,11.78
2019-05-21T01:50:10.004Z,11.72
2019-05-21T01:51:10.019Z,11.76
2019-05-21T01:52:09.971Z,11.72
2019-05-21T01:53:09.947Z,11.73
2019-05-21T01:54:09.956Z,11.80
2019-05-21T01:55:09.946Z,11.79
2019-05-21T01:56:09.977Z,11.62
2019-05-21T01:57:09.915Z,11.70
2019-05-21T01:58:09.920Z,11.69
2019-05-21T01:59:09.887Z,11.69
2019-05-21T02:00:09.884Z,11.69
2019-05-21T02:01:09.883Z,11.67
2019-05-21T02:02:09.893Z,11.69
2019-05-21T02:03:09.837Z,11.73
2019-05-21T02:04:09.847Z,11.75
2019-05-21T02:05:09.819Z,11.73
2019-05-21T02:06:09.826Z,11.72
2019-05-21T02:07:09.836Z,11.67
2019-05-21T02:08:09.795Z,11.65
2019-05-21T02:09:09.791Z,11.76
2019-05-21T02:10:09.779Z,11.67
2019-05-21T02:11:09.754Z,11.65
2019-05-21T02:12:10.882Z,11.64
2019-05-21T02:13:09.755Z,11.70
2019-05-21T02:14:09.715Z,11.61
2019-05-21T02:15:09.718Z,11.76
2019-05-21T02:16:09.689Z,11.72
2019-05-21T02:17:09.717Z,11.67
2019-05-21T02:18:09.694Z,11.69
2019-05-21T02:19:09.686Z,11.64
2019-05-21T02:20:09.655Z,11.64
2019-05-21T02:21:09.655Z,11.72
2019-05-21T02:22:09.630Z,11.62
2019-05-21T02:23:09.658Z,11.69
2019-05-21T02:24:09.638Z,11.69
2019-05-21T02:25:09.595Z,11.62
2019-05-21T02:26:09.591Z,11.58
2019-05-21T02:27:09.590Z,11.57
2019-05-21T02:28:09.605Z,11.64
2019-05-21T02:29:09.554Z,11.62
2019-05-21T02:30:09.975Z,11.49
2019-05-21T02:31:09.564Z,11.61
2019-05-21T02:32:09.513Z,11.60
2019-05-21T02:33:09.520Z,11.54
2019-05-21T02:34:09.540Z,11.43
2019-05-21T02:35:09.507Z,11.51
2019-05-21T02:36:09.492Z,11.62
2019-05-21T02:37:09.462Z,11.47
2019-05-21T02:38:09.499Z,11.47
2019-05-21T02:39:09.474Z,11.47
2019-05-21T02:40:09.432Z,11.47
2019-05-21T02:41:09.438Z,11.54
2019-05-21T02:42:09.397Z,11.49
2019-05-21T02:43:09.387Z,11.55
2019-05-21T02:44:09.482Z,11.51
2019-05-21T02:45:09.391Z,11.52
2019-05-21T02:46:09.370Z,11.54
2019-05-21T02:47:09.365Z,11.51
2019-05-21T02:48:09.339Z,11.43
2019-05-21T02:49:09.328Z,11.49
2019-05-21T02:50:09.372Z,11.47
2019-05-21T02:51:09.295Z,11.54
2019-05-21T02:52:09.318Z,11.51
2019-05-21T02:53:09.302Z,11.46
2019-05-21T02:54:09.268Z,11.51
2019-05-21T02:55:09.318Z,11.42
2019-05-21T02:56:09.254Z,11.47
2019-05-21T02:57:09.233Z,11.51
2019-05-21T02:58:09.236Z,11.44
2019-05-21T02:59:09.226Z,11.44
2019-05-21T03:00:09.209Z,11.39
2019-05-21T03:01:09.253Z,11.46
2019-05-21T03:02:09.171Z,11.43
2019-05-21T03:03:09.193Z,11.44
2019-05-21T03:04:09.174Z,11.42
2019-05-21T03:05:09.179Z,11.43
2019-05-21T03:06:14.765Z,11.33
2019-05-21T03:07:10.110Z,11.39
2019-05-21T03:08:09.116Z,11.40
2019-05-21T03:09:09.123Z,11.39
2019-05-21T03:10:09.149Z,11.29
2019-05-21T03:11:09.074Z,11.44
2019-05-21T03:12:09.064Z,11.28
2019-05-21T03:13:09.072Z,11.36
2019-05-21T03:14:09.036Z,11.35
2019-05-21T03:15:09.051Z,11.39
2019-05-21T03:16:09.063Z,11.40
2019-05-21T03:17:09.011Z,11.39
2019-05-21T03:18:08.989Z,11.37
2019-05-21T03:19:09.014Z,11.42
2019-05-21T03:20:08.968Z,11.37
2019-05-21T03:21:09.000Z,11.40
2019-05-21T03:22:08.971Z,11.40
2019-05-21T03:23:08.937Z,11.42
2019-05-21T03:24:09.018Z,11.33
2019-05-21T03:25:08.927Z,11.40
2019-05-21T03:26:08.947Z,11.37
2019-05-21T03:27:08.925Z,11.40
2019-05-21T03:28:08.884Z,11.42
2019-05-21T03:29:08.867Z,11.32
2019-05-21T03:30:08.874Z,11.37
2019-05-21T03:31:08.869Z,11.33
2019-05-21T03:32:08.935Z,11.37
2019-05-21T03:33:08.846Z,11.42
2019-05-21T03:34:08.812Z,11.42
2019-05-21T03:35:08.805Z,11.36
2019-05-21T03:36:08.800Z,11.37
2019-05-21T03:37:08.817Z,11.40
2019-05-21T03:38:08.781Z,11.37
2019-05-21T03:39:08.780Z,11.43
2019-05-21T03:40:08.757Z,11.35
2019-05-21T03:41:08.737Z,11.42
2019-05-21T03:42:08.795Z,11.42
2019-05-21T03:43:08.705Z,11.42
2019-05-21T03:44:08.716Z,11.37
2019-05-21T03:45:08.719Z,11.42
2019-05-21T03:46:08.676Z,11.44
2019-05-21T03:47:08.728Z,11.44
2019-05-21T03:48:08.677Z,11.44
2019-05-21T03:49:08.651Z,11.42
2019-05-21T03:50:08.653Z,11.43
2019-05-21T03:51:08.646Z,11.42
2019-05-21T03:52:08.671Z,11.40
2019-05-21T03:53:08.667Z,11.43
2019-05-21T03:54:08.616Z,11.42
2019-05-21T03:55:08.585Z,11.39
2019-05-21T03:56:08.594Z,11.40
2019-05-21T03:57:08.552Z,11.42
2019-05-21T03:58:08.596Z,11.40
2019-05-21T03:59:08.542Z,11.33
2019-05-21T04:00:08.523Z,11.40
2019-05-21T04:01:08.521Z,11.37
2019-05-21T04:02:08.539Z,11.39
2019-05-21T04:03:08.494Z,11.44
2019-05-21T04:04:08.467Z,11.32
2019-05-21T04:05:08.468Z,11.39
2019-05-21T04:06:08.453Z,11.39
2019-05-21T04:07:08.452Z,11.40
2019-05-21T04:08:08.419Z,11.36
2019-05-21T04:09:08.418Z,11.33
2019-05-21T04:10:08.389Z,11.29
2019-05-21T04:11:08.393Z,11.33
2019-05-21T04:12:08.384Z,11.35
2019-05-21T04:13:08.865Z,11.32
2019-05-21T04:14:08.352Z,11.29
2019-05-21T04:15:08.337Z,11.24
2019-05-21T04:16:08.346Z,11.21
2019-05-21T04:17:08.326Z,11.29
2019-05-21T04:18:08.313Z,11.28
2019-05-21T04:19:08.329Z,11.18
2019-05-21T04:20:08.275Z,11.21
2019-05-21T04:21:08.273Z,11.25
2019-05-21T04:22:08.298Z,11.21
2019-05-21T04:23:08.258Z,11.24
2019-05-21T04:24:09.318Z,11.18
2019-05-21T04:25:08.221Z,11.24
2019-05-21T04:26:08.210Z,11.28
2019-05-21T04:27:08.202Z,11.19
2019-05-21T04:28:08.208Z,11.18
2019-05-21T04:29:08.186Z,11.28
2019-05-21T04:30:11.238Z,11.18
2019-05-21T04:31:08.172Z,11.24
2019-05-21T04:32:08.145Z,11.24
2019-05-21T04:33:08.138Z,11.22
2019-05-21T04:34:08.129Z,11.27
2019-05-21T04:35:08.132Z,11.19
2019-05-21T04:36:08.200Z,11.21
2019-05-21T04:37:11.395Z,11.24
2019-05-21T04:38:08.075Z,11.22
2019-05-21T04:39:08.069Z,11.18
2019-05-21T04:40:08.078Z,11.21
2019-05-21T04:41:08.063Z,11.18
2019-05-21T04:42:08.048Z,11.17
2019-05-21T04:43:08.027Z,11.19
2019-05-21T04:44:08.011Z,11.19
2019-05-21T04:45:08.000Z,11.10
2019-05-21T04:46:08.021Z,11.09
2019-05-21T04:47:07.999Z,11.10
2019-05-21T04:48:07.969Z,11.19
2019-05-21T04:49:07.959Z,11.11
2019-05-21T04:50:07.943Z,11.07
2019-05-21T04:51:07.953Z,11.18
2019-05-21T04:52:07.926Z,11.15
2019-05-21T04:53:08.032Z,11.18
2019-05-21T04:54:07.895Z,11.15
2019-05-21T04:55:07.884Z,11.15
2019-05-21T04:56:07.895Z,11.10
2019-05-21T04:57:07.882Z,11.11
2019-05-21T04:58:07.867Z,11.09
2019-05-21T04:59:07.854Z,11.07
2019-05-21T05:00:07.830Z,11.14
2019-05-21T05:01:07.843Z,11.11
2019-05-21T05:02:07.810Z,11.19
2019-05-21T05:03:07.799Z,11.15
2019-05-21T05:04:07.805Z,11.15
2019-05-21T05:05:07.793Z,11.19
2019-05-21T05:06:07.759Z,11.07
2019-05-21T05:07:07.779Z,11.11
2019-05-21T05:08:07.750Z,11.06
2019-05-21T05:09:07.745Z,11.15
2019-05-21T05:10:07.728Z,11.19
2019-05-21T05:11:07.701Z,11.10
2019-05-21T05:12:07.704Z,11.06
2019-05-21T05:13:07.680Z,11.18
2019-05-21T05:14:07.675Z,11.11
2019-05-21T05:15:07.665Z,11.09
2019-05-21T05:16:07.670Z,11.18
2019-05-21T05:17:07.635Z,11.10
2019-05-21T05:18:07.631Z,11.10
2019-05-21T05:19:07.609Z,11.19
2019-05-21T05:20:07.617Z,11.14
2019-05-21T05:21:07.607Z,11.22
2019-05-21T05:22:07.596Z,11.21
2019-05-21T05:23:07.578Z,11.17
2019-05-21T05:24:07.554Z,11.22
2019-05-21T05:25:07.550Z,11.14
2019-05-21T05:26:07.543Z,11.21
2019-05-21T05:27:07.541Z,11.25
2019-05-21T05:28:07.546Z,11.25
2019-05-21T05:29:07.504Z,11.15
2019-05-21T05:30:07.484Z,11.18
2019-05-21T05:31:07.476Z,11.29
2019-05-21T05:32:07.485Z,11.18
2019-05-21T05:33:07.473Z,11.17
2019-05-21T05:34:07.473Z,11.21
2019-05-21T05:35:07.436Z,11.22
2019-05-21T05:36:07.424Z,11.22
2019-05-21T05:37:07.414Z,11.22
2019-05-21T05:38:07.426Z,11.24
2019-05-21T05:39:07.419Z,11.24
2019-05-21T05:40:07.411Z,11.25
2019-05-21T05:41:07.376Z,11.28
2019-05-21T05:42:07.355Z,11.25
2019-05-21T05:43:07.354Z,11.24
2019-05-21T05:44:07.351Z,11.22
2019-05-21T05:45:07.355Z,11.22
2019-05-21T05:46:07.346Z,11.24
2019-05-21T05:47:07.309Z,11.21
2019-05-21T05:48:07.284Z,11.24
2019-05-21T05:49:07.302Z,11.17
2019-05-21T05:50:07.287Z,11.25
2019-05-21T05:51:07.283Z,11.27
2019-05-21T05:52:07.245Z,11.21
2019-05-21T05:53:07.235Z,11.11
2019-05-21T05:54:07.877Z,11.21
2019-05-21T05:55:07.272Z,11.19
2019-05-21T05:56:07.217Z,11.21
2019-05-21T05:57:07.243Z,11.07
2019-05-21T05:58:07.218Z,11.09
2019-05-21T05:59:07.181Z,11.07
2019-05-21T06:00:07.197Z,11.17
2019-05-21T06:01:07.189Z,11.07
2019-05-21T06:02:07.151Z,11.14
2019-05-21T06:03:07.152Z,11.14
2019-05-21T06:04:07.124Z,11.14
2019-05-21T06:05:07.168Z,11.19
2019-05-21T06:06:07.086Z,11.10
2019-05-21T06:07:07.108Z,11.14
2019-05-21T06:08:07.103Z,11.14
2019-05-21T06:09:07.093Z,11.14
2019-05-21T06:10:07.044Z,11.14
2019-05-21T06:11:07.219Z,11.11
2019-05-21T06:12:07.019Z,11.10
2019-05-21T06:13:07.021Z,11.09
2019-05-21T06:14:07.014Z,10.99
2019-05-21T06:15:07.047Z,11.03
2019-05-21T06:16:06.993Z,11.07
2019-05-21T06:17:06.957Z,11.14
2019-05-21T06:18:06.957Z,11.09
2019-05-21T06:19:06.945Z,11.09
2019-05-21T06:20:06.954Z,11.04
2019-05-21T06:21:06.957Z,11.19
2019-05-21T06:22:06.901Z,11.07
2019-05-21T06:23:06.891Z,11.09
2019-05-21T06:24:06.891Z,11.15
2019-05-21T06:25:07.145Z,11.17
2019-05-21T06:26:06.894Z,11.21
2019-05-21T06:27:06.862Z,11.09
2019-05-21T06:28:06.834Z,11.18
2019-05-21T06:29:06.831Z,11.15
2019-05-21T06:30:06.830Z,11.15
2019-05-21T06:31:06.834Z,11.22
2019-05-21T06:32:06.834Z,11.22
2019-05-21T06:33:06.830Z,11.17
2019-05-21T06:34:06.790Z,11.25
2019-05-21T06:35:06.778Z,11.24
2019-05-21T06:36:06.772Z,11.11
2019-05-21T06:37:06.820Z,11.24
2019-05-21T06:38:17.095Z,11.15
2019-05-21T06:39:06.771Z,11.24
2019-05-21T06:40:06.724Z,11.19
2019-05-21T06:41:06.911Z,11.28
2019-05-21T06:42:06.726Z,11.27
2019-05-21T06:43:06.700Z,11.19
2019-05-21T06:44:06.713Z,11.19
2019-05-21T06:45:06.660Z,11.22
2019-05-21T06:46:06.643Z,11.33
2019-05-21T06:47:06.645Z,11.15
2019-05-21T06:48:06.654Z,11.18
2019-05-21T06:49:06.638Z,11.24
2019-05-21T06:50:06.643Z,11.25
2019-05-21T06:51:06.587Z,11.32
2019-05-21T06:52:06.582Z,11.28
2019-05-21T06:53:06.597Z,11.25
2019-05-21T06:54:06.559Z,11.27
2019-05-21T06:55:06.566Z,11.32
2019-05-21T06:56:07.494Z,11.33
2019-05-21T06:57:06.535Z,11.32
2019-05-21T06:58:06.580Z,11.33
2019-05-21T06:59:06.511Z,11.36
2019-05-21T07:00:06.500Z,11.32
2019-05-21T07:01:06.499Z,11.39
2019-05-21T07:02:06.460Z,11.36
2019-05-21T07:03:06.448Z,11.42
2019-05-21T07:04:06.451Z,11.42
2019-05-21T07:05:06.430Z,11.40
2019-05-21T07:06:06.434Z,11.40
2019-05-21T07:07:06.393Z,11.44
2019-05-21T07:08:06.431Z,11.52
2019-05-21T07:09:06.402Z,11.47
2019-05-21T07:10:07.088Z,11.51
2019-05-21T07:11:06.367Z,11.51
2019-05-21T07:12:06.421Z,11.47
2019-05-21T07:13:06.366Z,11.52
2019-05-21T07:14:06.378Z,11.52
2019-05-21T07:15:06.315Z,11.54
2019-05-21T07:16:06.323Z,11.55
2019-05-21T07:17:06.306Z,11.62
2019-05-21T07:18:06.304Z,11.62
2019-05-21T07:19:06.271Z,11.60
2019-05-21T07:20:06.240Z,11.61
2019-05-21T07:21:07.079Z,11.64
2019-05-21T07:22:12.770Z,11.55
2019-05-21T07:23:06.364Z,11.62
2019-05-21T07:24:06.199Z,11.62
2019-05-21T07:25:06.217Z,11.65
2019-05-21T07:26:06.195Z,11.65
2019-05-21T07:27:06.215Z,11.72
2019-05-21T07:28:06.164Z,11.62
2019-05-21T07:29:06.381Z,11.60
2019-05-21T07:30:06.166Z,11.62
2019-05-21T07:31:06.178Z,11.57
2019-05-21T07:32:06.196Z,11.61
2019-05-21T07:33:06.687Z,11.64
2019-05-21T07:34:07.048Z,11.60
2019-05-21T07:35:06.096Z,11.65
2019-05-21T07:36:06.095Z,11.64
2019-05-21T07:37:06.148Z,11.69
2019-05-21T07:38:06.043Z,11.73
2019-05-21T07:39:06.046Z,11.58
2019-05-21T07:40:06.047Z,11.67
2019-05-21T07:41:06.038Z,11.64
2019-05-21T07:42:06.034Z,11.69
2019-05-21T07:43:06.018Z,11.70
2019-05-21T07:44:05.995Z,11.69
2019-05-21T07:45:06.013Z,11.73
2019-05-21T07:46:05.975Z,11.65
2019-05-21T07:47:06.026Z,11.65
2019-05-21T07:48:05.969Z,11.73
2019-05-21T07:49:05.931Z,11.78
2019-05-21T07:50:05.929Z,11.70
2019-05-21T07:51:05.926Z,11.79
2019-05-21T07:52:05.910Z,11.76
2019-05-21T07:53:05.909Z,11.82
2019-05-21T07:54:05.861Z,11.73
2019-05-21T07:55:05.848Z,11.76
2019-05-21T07:56:05.841Z,11.73
2019-05-21T07:57:05.854Z,11.62
2019-05-21T07:58:05.845Z,11.64
2019-05-21T07:59:05.813Z,11.64
2019-05-21T08:00:05.787Z,11.62
2019-05-21T08:01:05.776Z,11.64
2019-05-21T08:02:05.783Z,11.72
2019-05-21T08:03:05.772Z,11.64
2019-05-21T08:04:05.740Z,11.69
2019-05-21T08:05:06.043Z,11.69
2019-05-21T08:06:05.723Z,11.55
2019-05-21T08:07:05.744Z,11.64
2019-05-21T08:08:05.729Z,11.55
2019-05-21T08:09:13.387Z,11.58
2019-05-21T08:10:06.674Z,11.61
2019-05-21T08:11:05.689Z,11.58
2019-05-21T08:12:27.494Z,11.64
2019-05-21T08:13:06.680Z,11.60
2019-05-21T08:14:05.661Z,11.65
2019-05-21T08:15:05.638Z,11.46
2019-05-21T08:16:05.612Z,11.54
2019-05-21T08:17:05.602Z,11.58
2019-05-21T08:18:05.582Z,11.61
2019-05-21T08:19:05.602Z,11.64
2019-05-21T08:20:09.731Z,11.58
2019-05-21T08:21:05.585Z,11.60
2019-05-21T08:22:05.550Z,11.51
2019-05-21T08:23:05.583Z,11.47
2019-05-21T08:24:05.537Z,11.47
2019-05-21T08:25:05.519Z,11.46
2019-05-21T08:26:05.509Z,11.57
2019-05-21T08:27:05.499Z,11.51
2019-05-21T08:28:05.479Z,11.52
2019-05-21T08:29:05.466Z,11.54
2019-05-21T08:30:05.447Z,11.60
2019-05-21T08:31:05.483Z,11.61
2019-05-21T08:32:05.445Z,11.57
2019-05-21T08:33:05.441Z,11.58
2019-05-21T08:34:05.440Z,11.69
2019-05-21T08:35:05.461Z,11.72
2019-05-21T08:36:05.871Z,11.70
2019-05-21T08:37:05.383Z,11.72
2019-05-21T08:38:06.800Z,11.76
2019-05-21T08:39:05.387Z,11.67
2019-05-21T08:40:05.376Z,11.72
2019-05-21T08:41:05.345Z,11.73
2019-05-21T08:42:05.327Z,11.75
2019-05-21T08:43:05.354Z,11.72
2019-05-21T08:44:05.319Z,11.64
2019-05-21T08:45:05.796Z,11.73
2019-05-21T08:46:05.286Z,11.75
2019-05-21T08:47:05.279Z,11.72
2019-05-21T08:48:05.365Z,11.72
2019-05-21T08:49:05.266Z,11.64
2019-05-21T08:50:05.257Z,11.72
2019-05-21T08:51:05.222Z,11.70
2019-05-21T08:52:05.237Z,11.78
2019-05-21T08:53:05.214Z,11.58
2019-05-21T08:54:05.224Z,11.58
2019-05-21T08:55:05.194Z,11.61
2019-05-21T08:56:05.152Z,11.52
2019-05-21T08:57:05.141Z,11.67
2019-05-21T08:58:07.441Z,11.60
2019-05-21T08:59:05.156Z,11.65
2019-05-21T09:00:05.123Z,11.55
2019-05-21T09:01:05.111Z,11.49
2019-05-21T09:02:05.088Z,11.43
2019-05-21T09:03:05.088Z,11.64
2019-05-21T09:04:05.077Z,11.57
2019-05-21T09:05:05.078Z,11.60
2019-05-21T09:06:05.085Z,11.57
2019-05-21T09:07:05.027Z,11.69
2019-05-21T09:08:05.032Z,11.70
2019-05-21T09:09:05.014Z,11.70
2019-05-21T09:10:04.995Z,11.78
2019-05-21T09:11:05.017Z,11.86
2019-05-21T09:12:04.990Z,11.79
2019-05-21T09:13:04.996Z,11.90
2019-05-21T09:14:05.000Z,11.91
2019-05-21T09:15:04.958Z,11.91
2019-05-21T09:16:05.001Z,11.91
2019-05-21T09:17:04.955Z,12.01
2019-05-21T09:18:04.949Z,11.99
2019-05-21T09:19:04.927Z,12.04
2019-05-21T09:20:04.910Z,12.10
2019-05-21T09:21:04.869Z,11.99
2019-05-21T09:22:04.863Z,12.04
2019-05-21T09:23:04.865Z,11.91
2019-05-21T09:24:04.861Z,12.01
2019-05-21T09:25:05.102Z,11.99
2019-05-21T09:26:04.810Z,11.94
2019-05-21T09:27:04.798Z,12.04
2019-05-21T09:28:04.822Z,12.09
2019-05-21T09:29:04.793Z,12.07
2019-05-21T09:30:04.828Z,12.05
2019-05-21T09:31:04.752Z,12.04
2019-05-21T09:32:04.742Z,12.13
2019-05-21T09:33:04.728Z,12.02
2019-05-21T09:34:04.736Z,12.14
2019-05-21T09:35:04.731Z,11.99
2019-05-21T09:36:04.760Z,12.01
2019-05-21T09:37:18.678Z,12.07
2019-05-21T09:38:04.689Z,12.01
2019-05-21T09:39:04.676Z,11.98
2019-05-21T09:40:04.698Z,12.01
2019-05-21T09:41:04.663Z,11.94
2019-05-21T09:42:04.766Z,11.94
2019-05-21T09:43:04.634Z,11.90
2019-05-21T09:44:04.620Z,11.86
2019-05-21T09:45:04.647Z,11.83
2019-05-21T09:46:04.588Z,11.70
2019-05-21T09:47:04.595Z,11.78
2019-05-21T09:48:04.663Z,11.76
2019-05-21T09:49:04.565Z,11.82
2019-05-21T09:50:04.701Z,11.83
2019-05-21T09:51:04.564Z,11.72
2019-05-21T09:52:04.528Z,11.73
2019-05-21T09:53:04.537Z,11.76
2019-05-21T09:54:04.503Z,11.70
2019-05-21T09:55:04.485Z,11.75
2019-05-21T09:56:04.543Z,11.73
2019-05-21T09:57:04.530Z,11.75
2019-05-21T09:58:04.479Z,11.79
2019-05-21T09:59:04.439Z,11.73
2019-05-21T10:00:04.437Z,11.73
2019-05-21T10:01:04.422Z,11.80
2019-05-21T10:02:04.417Z,11.72
2019-05-21T10:03:04.520Z,11.72
2019-05-21T10:04:04.394Z,11.70
2019-05-21T10:05:04.362Z,11.76
2019-05-21T10:06:04.370Z,11.78
2019-05-21T10:07:04.343Z,11.75
2019-05-21T10:08:04.346Z,11.78
2019-05-21T10:09:04.358Z,11.78
2019-05-21T10:10:04.342Z,11.72
2019-05-21T10:11:04.296Z,11.75
2019-05-21T10:12:04.297Z,11.73
2019-05-21T10:13:04.272Z,11.82
2019-05-21T10:14:04.277Z,11.83
2019-05-21T10:15:04.371Z,11.72
2019-05-21T10:16:04.271Z,11.80
2019-05-21T10:17:04.226Z,11.85
2019-05-21T10:18:04.214Z,11.86
2019-05-21T10:19:04.209Z,11.75
2019-05-21T10:20:04.215Z,11.79
2019-05-21T10:21:04.220Z,11.83
2019-05-21T10:22:04.281Z,11.85
2019-05-21T10:23:04.165Z,11.72
2019-05-21T10:24:04.154Z,11.86
2019-05-21T10:25:04.664Z,11.85
2019-05-21T10:26:04.140Z,11.69
2019-05-21T10:27:04.137Z,11.85
2019-05-21T10:28:04.112Z,11.83
2019-05-21T10:29:04.093Z,11.76
2019-05-21T10:30:04.078Z,11.80
2019-05-21T10:31:04.096Z,11.75
2019-05-21T10:32:04.071Z,11.73
2019-05-21T10:33:04.082Z,11.76
2019-05-21T10:34:04.042Z,11.76
2019-05-21T10:35:04.652Z,11.83
2019-05-21T10:36:04.026Z,11.78
2019-05-21T10:37:04.020Z,11.86
2019-05-21T10:38:04.009Z,11.70
2019-05-21T10:39:03.979Z,11.86
2019-05-21T10:40:03.965Z,11.75
2019-05-21T10:41:03.971Z,11.80
2019-05-21T10:42:03.941Z,11.80
2019-05-21T10:43:03.938Z,11.80
2019-05-21T10:44:03.930Z,11.88
2019-05-21T10:45:03.911Z,11.83
2019-05-21T10:46:03.893Z,11.75
2019-05-21T10:47:03.891Z,11.76
2019-05-21T10:48:03.882Z,11.75
2019-05-21T10:49:03.878Z,11.85
2019-05-21T10:50:03.877Z,11.83
2019-05-21T10:51:03.850Z,11.90
2019-05-21T10:52:03.846Z,11.88
2019-05-21T10:53:03.817Z,11.86
2019-05-21T10:54:03.814Z,11.90
2019-05-21T10:55:03.813Z,11.90
2019-05-21T10:56:03.780Z,11.85
2019-05-21T10:57:03.821Z,11.82
2019-05-21T10:58:03.766Z,11.82
2019-05-21T10:59:03.748Z,11.76
2019-05-21T11:00:03.756Z,11.73
2019-05-21T11:01:03.749Z,11.80
2019-05-21T11:02:03.747Z,11.76
2019-05-21T11:03:03.754Z,11.72
2019-05-21T11:04:03.705Z,11.75
2019-05-21T11:05:03.684Z,11.80
2019-05-21T11:06:10.260Z,11.79
2019-05-21T11:07:03.689Z,11.76
2019-05-21T11:08:22.795Z,11.73
2019-05-21T11:09:04.634Z,11.78
2019-05-21T11:10:03.671Z,11.76
2019-05-21T11:11:03.631Z,11.80
2019-05-21T11:12:03.652Z,11.76
2019-05-21T11:13:03.611Z,11.75
2019-05-21T11:14:03.579Z,11.73
2019-05-21T11:15:03.626Z,11.69
2019-05-21T11:16:03.570Z,11.70
2019-05-21T11:17:03.583Z,11.72
2019-05-21T11:18:11.902Z,11.73
2019-05-21T11:19:04.529Z,11.73
2019-05-21T11:20:03.511Z,11.73
2019-05-21T11:21:03.497Z,11.70
2019-05-21T11:22:03.492Z,11.73
2019-05-21T11:23:03.492Z,11.75
2019-05-21T11:24:03.527Z,11.73
2019-05-21T11:25:03.482Z,11.76
2019-05-21T11:26:03.663Z,11.75
2019-05-21T11:27:04.817Z,11.79
2019-05-21T11:28:06.025Z,11.76
2019-05-21T11:29:03.420Z,11.85
2019-05-21T11:30:03.422Z,11.86
2019-05-21T11:31:03.391Z,11.95
2019-05-21T11:32:03.374Z,11.90
2019-05-21T11:33:03.388Z,11.94
2019-05-21T11:34:03.356Z,11.96
2019-05-21T11:35:03.374Z,12.04
2019-05-21T11:36:03.349Z,11.94
2019-05-21T11:37:03.348Z,12.09
2019-05-21T11:38:03.310Z,12.02
2019-05-21T11:39:03.334Z,12.04
2019-05-21T11:40:03.298Z,12.17
2019-05-21T11:41:03.319Z,12.19
2019-05-21T11:42:03.285Z,12.27
2019-05-21T11:43:03.292Z,12.32
2019-05-21T11:44:03.243Z,12.32
2019-05-21T11:45:03.225Z,12.35
2019-05-21T11:46:03.390Z,12.47
2019-05-21T11:47:03.213Z,12.42
2019-05-21T11:48:03.211Z,12.52
2019-05-21T11:49:03.230Z,12.38
2019-05-21T11:50:03.174Z,12.32
2019-05-21T11:51:03.158Z,12.38
2019-05-21T11:52:03.151Z,12.37
2019-05-21T11:53:03.148Z,12.31
2019-05-21T11:54:03.127Z,12.29
2019-05-21T11:55:03.119Z,12.24
2019-05-21T11:56:03.105Z,12.28
2019-05-21T11:57:03.099Z,12.27
2019-05-21T11:58:03.090Z,12.27
2019-05-21T11:59:03.096Z,12.16
2019-05-21T12:00:03.074Z,12.20
2019-05-21T12:01:03.045Z,12.24
2019-05-21T12:02:03.031Z,12.19
2019-05-21T12:03:03.033Z,12.29
2019-05-21T12:04:03.022Z,12.29
2019-05-21T12:05:03.033Z,12.29
2019-05-21T12:06:03.014Z,12.29
2019-05-21T12:07:03.737Z,12.34
2019-05-21T12:08:02.978Z,12.24
2019-05-21T12:09:02.986Z,12.21
2019-05-21T12:10:02.956Z,12.28
2019-05-21T12:11:02.961Z,12.23
2019-05-21T12:12:02.937Z,12.24
2019-05-21T12:13:02.952Z,12.35
2019-05-21T12:14:02.897Z,12.27
2019-05-21T12:15:02.923Z,12.21
2019-05-21T12:16:02.900Z,12.20
2019-05-21T12:17:02.864Z,12.32
2019-05-21T12:18:02.859Z,12.31
2019-05-21T12:19:02.843Z,12.31
2019-05-21T12:20:02.847Z,12.19
2019-05-21T12:21:02.841Z,12.10
2019-05-21T12:22:02.831Z,12.28
2019-05-21T12:23:02.799Z,12.17
2019-05-21T12:24:02.781Z,12.21
2019-05-21T12:25:02.772Z,12.21
2019-05-21T12:26:02.783Z,12.20
2019-05-21T12:27:02.762Z,12.28
2019-05-21T12:28:02.776Z,12.29
2019-05-21T12:29:02.736Z,12.27
2019-05-21T12:30:02.717Z,12.24
2019-05-21T12:31:02.716Z,12.28
2019-05-21T12:32:02.715Z,12.27
2019-05-21T12:33:02.699Z,12.29
2019-05-21T12:34:02.710Z,12.27
2019-05-21T12:35:02.714Z,12.28
2019-05-21T12:36:02.650Z,12.28
2019-05-21T12:37:02.685Z,12.32
2019-05-21T12:38:02.630Z,12.34
2019-05-21T12:39:13.789Z,12.39
2019-05-21T12:40:03.606Z,12.32
2019-05-21T12:41:02.585Z,12.35
2019-05-21T12:42:02.589Z,12.42
2019-05-21T12:43:02.575Z,12.42
2019-05-21T12:44:02.565Z,12.42
2019-05-21T12:45:02.586Z,12.42
2019-05-21T12:46:02.572Z,12.49
2019-05-21T12:47:02.523Z,12.45
2019-05-21T12:48:02.525Z,12.45
2019-05-21T12:49:02.519Z,12.45
2019-05-21T12:50:02.507Z,12.49
2019-05-21T12:51:02.501Z,12.46
2019-05-21T12:52:02.472Z,12.38